Monte Real Airport Monte Real, Leiria PT
ICAO: LPMR
IATA:
Category: Medium
Scheduled Services: No

Elevation: 187 ft
TransAlt. 4000 ft.

Airport Communications:
APP:121.7
GND:119.725
TWR:122.1

LPMR Zoom In..

If you have problems with the map follow the link
https://www.worldairports.se/pages/airport.php?
ICAO=LPMR

Runways:

(A) RW 01 length 8068 ft width 148 ft
ILS 109.15 / hdg 6

(B) RW 19 length 8068 ft width 148 ft
ILS 110.30 / hdg 186

Location; LPMR
Day. 21 / Time. 07.00 Zulu
* QNH: 1017
* Temperature: 14° c. 57.2°f.
* Wind from: VRB° Speed 02 kn.
Dewpoint: 14° c.
Visibility: 10 km or more.
Clouds: Scattered 4000 ft.

LPMR 210700Z VRB02KT 9999 SCT040 14/14 Q1017


Wind From VRB°
Speed 02 kn.

 
 
jpsmedia.com for Web Design worldairports.se 2018   terms of use